Terminal Aerodrome Forecast
Issued by NWS Wakefield, VA

Home | Current Version | Previous Version | Text Only | Print | Product List | Glossary On
Versions: 1 2 3 4 5 6 7 8 9 10 11 12 13 14 15 16
382
FTUS41 KAKQ 251309 AAA
TAFECG
TAF AMD
KECG 251309Z 2513/2612 18007KT P6SM SCT250
     FM251700 19010KT P6SM SCT050 BKN250
     FM252100 20014G22KT P6SM BKN050
     FM260000 24012G19KT P6SM -SHRA BKN040
     FM260200 30012G20KT P6SM SCT050=

USA.gov is the U.S. government's official web portal to all federal, state and local government web resources and services.